Terminal Aerodrome Forecast
Issued by NWS

Home | Current Version | Previous Version | Text Only | Print | Product List | Glossary On
Versions: 1 2 3 4 5 6 7 8 9 10 11 12 13 14
000
FTUS45 KABQ 252324
TAFTCC
TAF
KTCC 252324Z 2600/2624 28025G35KT P6SM SCT070 SCT120
     FM260200 30015G25KT P6SM VCSH BKN100
      TEMPO 2602/2606 VRB25G40KT -SHRA OVC040
     FM260600 36017G28KT P6SM VCSH BKN025
     FM261400 35011KT P6SM SCT040
     FM261900 26013G21KT P6SM FEW060=

USA.gov is the U.S. government's official web portal to all federal, state and local government web resources and services.